createdAt,value
2019-04-10T00:01:34.102Z,9.70
2019-04-10T00:04:07.131Z,9.70
2019-04-10T00:06:39.570Z,9.70
2019-04-10T00:09:11.855Z,9.60
2019-04-10T00:11:45.072Z,9.60
2019-04-10T00:14:17.176Z,9.60
2019-04-10T00:16:49.265Z,9.60
2019-04-10T00:19:22.400Z,9.60
2019-04-10T00:21:54.460Z,9.60
2019-04-10T00:24:28.093Z,9.60
2019-04-10T00:27:00.223Z,9.50
2019-04-10T00:29:33.138Z,9.50
2019-04-10T00:32:05.740Z,9.50
2019-04-10T00:34:37.964Z,9.50
2019-04-10T00:37:21.299Z,9.50
2019-04-10T00:39:44.527Z,9.50
2019-04-10T00:42:16.955Z,9.50
2019-04-10T00:44:50.068Z,9.50
2019-04-10T00:47:23.201Z,9.50
2019-04-10T00:49:55.790Z,9.50
2019-04-10T00:52:28.200Z,9.50
2019-04-10T00:55:01.504Z,9.50
2019-04-10T00:57:34.253Z,9.40
2019-04-10T01:00:07.078Z,9.40
2019-04-10T01:02:39.191Z,9.40
2019-04-10T01:05:11.412Z,9.40
2019-04-10T01:07:44.683Z,9.40
2019-04-10T01:10:17.876Z,9.40
2019-04-10T01:12:50.014Z,9.40
2019-04-10T01:15:22.603Z,9.40
2019-04-10T01:17:55.161Z,9.30
2019-04-10T01:20:27.713Z,9.30
2019-04-10T01:22:59.829Z,9.30
2019-04-10T01:25:32.543Z,9.30
2019-04-10T01:28:04.695Z,9.30
2019-04-10T01:30:38.116Z,9.20
2019-04-10T01:33:10.358Z,9.20
2019-04-10T01:35:42.587Z,9.20
2019-04-10T01:38:15.514Z,9.20
2019-04-10T01:40:47.959Z,9.20
2019-04-10T01:43:20.103Z,9.10
2019-04-10T01:45:52.186Z,9.10
2019-04-10T01:48:24.231Z,9.10
2019-04-10T01:50:57.080Z,9.10
2019-04-10T01:53:30.054Z,9.00
2019-04-10T01:56:03.085Z,9.10
2019-04-10T01:58:35.284Z,9.00
2019-04-10T02:01:30.427Z,9.00
2019-04-10T02:04:02.694Z,9.00
2019-04-10T02:06:35.770Z,9.00
2019-04-10T02:09:11.257Z,8.90
2019-04-10T02:11:43.374Z,8.90
2019-04-10T02:14:16.225Z,8.90
2019-04-10T02:16:49.354Z,8.90
2019-04-10T02:19:21.868Z,8.80
2019-04-10T02:21:54.170Z,8.80
2019-04-10T02:24:27.227Z,8.80
2019-04-10T02:27:00.257Z,8.80
2019-04-10T02:29:33.517Z,8.70
2019-04-10T02:32:06.218Z,8.70
2019-04-10T02:34:39.403Z,8.60
2019-04-10T02:37:12.804Z,8.60
2019-04-10T02:39:48.402Z,8.50
2019-04-10T02:42:20.672Z,8.50
2019-04-10T02:44:54.184Z,8.50
2019-04-10T02:47:28.237Z,8.50
2019-04-10T02:50:00.812Z,8.50
2019-04-10T02:52:34.920Z,8.40
2019-04-10T02:55:09.898Z,8.40
2019-04-10T02:57:43.598Z,8.40
2019-04-10T03:00:18.119Z,8.30
2019-04-10T03:02:51.948Z,8.30
2019-04-10T03:05:25.712Z,8.30
2019-04-10T03:07:59.915Z,8.20
2019-04-10T03:10:38.908Z,8.20
2019-04-10T03:13:06.332Z,8.20
2019-04-10T03:15:39.207Z,8.20
2019-04-10T03:18:11.373Z,8.20
2019-04-10T03:20:44.640Z,8.20
2019-04-10T03:23:17.640Z,8.20
2019-04-10T03:25:50.883Z,8.20
2019-04-10T03:28:23.570Z,8.20
2019-04-10T03:30:58.147Z,8.20
2019-04-10T03:33:55.862Z,8.10
2019-04-10T03:36:37.869Z,8.10
2019-04-10T03:39:11.071Z,8.00
2019-04-10T03:41:44.316Z,8.00
2019-04-10T03:44:16.818Z,8.00
2019-04-10T03:46:49.078Z,7.90
2019-04-10T03:49:22.073Z,7.80
2019-04-10T03:51:54.653Z,7.80
2019-04-10T03:54:27.801Z,7.70
2019-04-10T03:57:00.415Z,7.70
2019-04-10T03:59:32.707Z,7.60
2019-04-10T04:02:05.314Z,7.60
2019-04-10T04:04:37.696Z,7.60
2019-04-10T04:07:09.790Z,7.60
2019-04-10T04:09:41.948Z,7.60
2019-04-10T04:12:14.729Z,7.60
2019-04-10T04:14:48.437Z,7.60
2019-04-10T04:17:22.132Z,7.60
2019-04-10T04:19:54.595Z,7.60
2019-04-10T04:22:28.311Z,7.60
2019-04-10T04:25:00.574Z,7.60
2019-04-10T04:27:33.571Z,7.60
2019-04-10T04:30:06.500Z,7.50
2019-04-10T04:32:38.569Z,7.50
2019-04-10T04:35:11.209Z,7.50
2019-04-10T04:37:44.236Z,7.60
2019-04-10T04:40:17.415Z,7.60
2019-04-10T04:42:49.886Z,7.50
2019-04-10T04:45:22.009Z,7.50
2019-04-10T04:47:54.080Z,7.50
2019-04-10T04:50:27.057Z,7.40
2019-04-10T04:53:00.401Z,7.40
2019-04-10T04:55:33.178Z,7.40
2019-04-10T04:58:06.198Z,7.40
2019-04-10T05:00:39.494Z,7.40
2019-04-10T05:03:12.071Z,7.40
2019-04-10T05:05:44.575Z,7.40
2019-04-10T05:08:17.702Z,7.40
2019-04-10T05:10:50.239Z,7.50
2019-04-10T05:13:24.368Z,7.60
2019-04-10T05:15:57.503Z,7.70
2019-04-10T05:18:30.312Z,7.70
2019-04-10T05:21:03.059Z,7.80
2019-04-10T05:23:36.947Z,7.70
2019-04-10T05:26:10.146Z,7.50
2019-04-10T05:28:42.553Z,7.50
2019-04-10T05:31:15.445Z,7.40
2019-04-10T05:33:47.519Z,7.50
2019-04-10T05:36:19.950Z,7.50
2019-04-10T05:38:52.578Z,7.60
2019-04-10T05:41:25.950Z,7.60
2019-04-10T05:43:58.605Z,7.60
2019-04-10T05:46:32.496Z,7.70
2019-04-10T05:49:05.217Z,7.70
2019-04-10T05:51:37.491Z,7.70
2019-04-10T05:54:10.551Z,7.70
2019-04-10T05:56:42.985Z,7.80
2019-04-10T05:59:16.454Z,7.90
2019-04-10T06:01:49.046Z,7.90
2019-04-10T06:04:22.136Z,8.00
2019-04-10T06:06:54.876Z,8.10
2019-04-10T06:09:26.950Z,8.20
2019-04-10T06:12:00.117Z,8.30
2019-04-10T06:14:32.629Z,8.40
2019-04-10T06:17:05.993Z,8.50
2019-04-10T06:19:38.066Z,8.50
2019-04-10T06:22:11.230Z,8.70
2019-04-10T06:24:44.567Z,8.80
2019-04-10T06:27:18.421Z,8.80
2019-04-10T06:29:50.976Z,8.90
2019-04-10T06:32:23.266Z,8.90
2019-04-10T06:34:56.100Z,8.90
2019-04-10T06:37:28.633Z,9.00
2019-04-10T06:40:10.753Z,9.00
2019-04-10T06:42:46.164Z,9.00
2019-04-10T06:45:09.560Z,9.00
2019-04-10T06:47:42.478Z,9.00
2019-04-10T06:50:15.433Z,9.00
2019-04-10T06:52:49.251Z,9.00
2019-04-10T06:55:22.287Z,9.00
2019-04-10T06:57:57.750Z,9.00
2019-04-10T07:00:30.564Z,9.10
2019-04-10T07:03:03.167Z,9.10
2019-04-10T07:05:41.356Z,9.20
2019-04-10T07:08:16.053Z,9.20
2019-04-10T07:10:52.105Z,9.30
2019-04-10T07:13:17.612Z,9.40
2019-04-10T07:15:54.454Z,9.40
2019-04-10T07:18:24.810Z,9.50
2019-04-10T07:20:59.887Z,9.60
2019-04-10T07:23:33.128Z,9.70
2019-04-10T07:26:06.009Z,9.70
2019-04-10T07:28:41.512Z,9.80
2019-04-10T07:31:13.049Z,9.90
2019-04-10T07:33:50.128Z,10.00
2019-04-10T07:36:20.348Z,10.10
2019-04-10T07:38:55.702Z,10.10
2019-04-10T07:41:27.298Z,10.10
2019-04-10T07:44:05.866Z,10.20
2019-04-10T07:46:38.275Z,10.30
2019-04-10T07:49:10.598Z,10.50
2019-04-10T07:51:47.255Z,10.60
2019-04-10T07:54:21.206Z,10.70
2019-04-10T07:56:52.995Z,10.70
2019-04-10T07:59:25.540Z,10.80
2019-04-10T08:01:58.056Z,11.00
2019-04-10T08:04:35.315Z,11.20
2019-04-10T08:07:07.430Z,11.40
2019-04-10T08:09:39.955Z,11.60
2019-04-10T08:12:13.846Z,11.80
2019-04-10T08:14:46.381Z,12.10
2019-04-10T08:17:19.674Z,12.30
2019-04-10T08:19:51.755Z,12.50
2019-04-10T08:22:24.593Z,12.50
2019-04-10T08:24:57.990Z,12.60
2019-04-10T08:27:30.053Z,12.60
2019-04-10T08:30:03.204Z,12.60
2019-04-10T08:32:47.296Z,12.60
2019-04-10T08:35:11.099Z,12.60
2019-04-10T08:37:43.310Z,12.40
2019-04-10T08:40:16.758Z,12.50
2019-04-10T08:42:49.473Z,12.40
2019-04-10T08:45:21.586Z,12.50
2019-04-10T08:47:54.053Z,12.50
2019-04-10T08:50:26.140Z,12.40
2019-04-10T08:52:59.905Z,12.30
2019-04-10T08:55:32.522Z,12.30
2019-04-10T08:58:06.196Z,12.40
2019-04-10T09:00:38.280Z,12.40
2019-04-10T09:03:10.926Z,12.40
2019-04-10T09:05:43.474Z,12.40
2019-04-10T09:08:16.970Z,12.50
2019-04-10T09:10:50.324Z,12.50
2019-04-10T09:13:22.558Z,12.50
2019-04-10T09:15:54.687Z,12.50
2019-04-10T09:18:27.559Z,12.40
2019-04-10T09:21:00.682Z,12.30
2019-04-10T09:23:40.938Z,12.20
2019-04-10T09:26:08.029Z,12.30
2019-04-10T09:28:40.629Z,12.30
2019-04-10T09:31:13.550Z,12.10
2019-04-10T09:33:47.347Z,12.10
2019-04-10T09:36:19.940Z,12.10
2019-04-10T09:38:52.808Z,12.00
2019-04-10T09:41:25.907Z,11.90
2019-04-10T09:43:58.482Z,11.80
2019-04-10T09:46:31.549Z,11.70
2019-04-10T09:49:05.398Z,11.70
2019-04-10T09:51:38.347Z,11.70
2019-04-10T09:54:10.921Z,11.70
2019-04-10T09:56:44.202Z,11.80
2019-04-10T09:59:18.062Z,11.90
2019-04-10T10:01:51.388Z,12.00
2019-04-10T10:04:23.695Z,12.00
2019-04-10T10:06:55.868Z,12.00
2019-04-10T10:09:29.254Z,12.10
2019-04-10T10:12:03.063Z,12.10
2019-04-10T10:14:35.848Z,12.20
2019-04-10T10:17:08.589Z,12.30
2019-04-10T10:19:41.164Z,12.40
2019-04-10T10:22:13.291Z,12.50
2019-04-10T10:24:46.748Z,12.60
2019-04-10T10:27:19.922Z,12.80
2019-04-10T10:29:53.541Z,12.90
2019-04-10T10:32:26.700Z,12.90
2019-04-10T10:34:58.913Z,12.90
2019-04-10T10:37:32.616Z,13.00
2019-04-10T10:40:08.367Z,13.20
2019-04-10T10:42:41.482Z,13.30
2019-04-10T10:45:14.681Z,13.40
2019-04-10T10:47:46.772Z,13.40
2019-04-10T10:50:19.511Z,13.30
2019-04-10T10:52:52.149Z,13.20
2019-04-10T10:55:25.409Z,13.10
2019-04-10T10:57:57.948Z,13.00
2019-04-10T11:00:31.416Z,12.90
2019-04-10T11:03:05.619Z,12.90
2019-04-10T11:05:38.275Z,12.90
2019-04-10T11:08:11.135Z,12.90
2019-04-10T11:10:48.012Z,13.10
2019-04-10T11:13:17.286Z,13.40
2019-04-10T11:15:49.965Z,13.60
2019-04-10T11:18:22.262Z,13.60
2019-04-10T11:21:00.665Z,13.60
2019-04-10T11:23:30.543Z,13.60
2019-04-10T11:26:04.689Z,13.60
2019-04-10T11:28:37.466Z,13.70
2019-04-10T11:31:11.053Z,13.70
2019-04-10T11:33:45.507Z,13.70
2019-04-10T11:36:17.892Z,13.70
2019-04-10T11:38:51.811Z,13.70
2019-04-10T11:41:26.037Z,13.80
2019-04-10T11:43:58.164Z,13.90
2019-04-10T11:46:32.151Z,13.90
2019-04-10T11:49:05.524Z,13.90
2019-04-10T11:51:39.020Z,13.80
2019-04-10T11:54:14.610Z,13.80
2019-04-10T11:56:48.302Z,13.80
2019-04-10T11:59:21.982Z,13.90
2019-04-10T12:02:00.131Z,13.90
2019-04-10T12:04:30.826Z,14.00
2019-04-10T12:07:03.823Z,13.90
2019-04-10T12:12:11.192Z,13.90
2019-04-10T12:14:43.771Z,14.00
2019-04-10T12:17:16.288Z,14.10
2019-04-10T12:19:48.752Z,14.10
2019-04-10T12:22:21.323Z,14.20
2019-04-10T12:24:54.362Z,14.20
2019-04-10T12:27:27.711Z,14.30
2019-04-10T12:30:00.211Z,14.30
2019-04-10T12:32:32.539Z,14.40
2019-04-10T12:35:06.738Z,14.40
2019-04-10T12:37:39.402Z,14.40
2019-04-10T12:40:11.910Z,14.40
2019-04-10T12:42:44.181Z,14.50
2019-04-10T12:45:17.734Z,14.50
2019-04-10T12:47:50.313Z,14.50
2019-04-10T12:50:22.603Z,14.50
2019-04-10T12:52:55.106Z,14.60
2019-04-10T12:55:28.242Z,14.50
2019-04-10T12:58:10.675Z,14.60
2019-04-10T13:00:36.071Z,14.70
2019-04-10T13:03:09.247Z,14.80
2019-04-10T13:05:41.342Z,14.80
2019-04-10T13:08:21.309Z,14.60
2019-04-10T13:10:48.006Z,14.50
2019-04-10T13:13:20.442Z,14.50
2019-04-10T13:15:54.080Z,14.40
2019-04-10T13:18:26.608Z,14.30
2019-04-10T13:20:59.555Z,14.30
2019-04-10T13:23:33.068Z,14.30
2019-04-10T13:26:07.432Z,14.20
2019-04-10T13:28:39.422Z,14.20
2019-04-10T13:31:11.565Z,14.30
2019-04-10T13:33:44.720Z,14.20
2019-04-10T13:36:17.647Z,14.00
2019-04-10T13:38:50.607Z,13.90
2019-04-10T13:41:24.094Z,13.80
2019-04-10T13:43:56.293Z,13.80
2019-04-10T13:46:28.984Z,13.70
2019-04-10T13:49:01.956Z,13.60
2019-04-10T13:51:35.118Z,13.60
2019-04-10T13:54:07.418Z,13.60
2019-04-10T13:56:41.275Z,13.60
2019-04-10T13:59:13.999Z,13.70
2019-04-10T14:01:48.101Z,13.70
2019-04-10T14:04:20.895Z,13.60
2019-04-10T14:06:53.581Z,13.60
2019-04-10T14:09:38.018Z,13.60
2019-04-10T14:12:01.677Z,13.60
2019-04-10T14:14:35.097Z,13.70
2019-04-10T14:17:07.539Z,13.70
2019-04-10T14:19:41.564Z,13.80
2019-04-10T14:22:14.047Z,13.80
2019-04-10T14:24:48.197Z,13.80
2019-04-10T14:27:25.612Z,13.80
2019-04-10T14:29:58.971Z,13.80
2019-04-10T14:32:39.654Z,13.70
2019-04-10T14:35:12.052Z,13.70
2019-04-10T14:37:45.430Z,13.70
2019-04-10T14:40:18.060Z,13.80
2019-04-10T14:42:51.463Z,13.80
2019-04-10T14:45:23.615Z,13.70
2019-04-10T14:47:56.820Z,13.70
2019-04-10T14:50:31.622Z,13.70
2019-04-10T14:53:04.109Z,13.70
2019-04-10T14:55:37.690Z,13.70
2019-04-10T14:58:20.434Z,13.70
2019-04-10T15:00:51.436Z,13.70
2019-04-10T15:03:24.412Z,13.70
2019-04-10T15:05:58.274Z,13.70
2019-04-10T15:08:31.458Z,13.60
2019-04-10T15:11:04.613Z,13.60
2019-04-10T15:13:36.691Z,13.60
2019-04-10T15:16:09.236Z,13.50
2019-04-10T15:18:42.305Z,13.50
2019-04-10T15:21:14.871Z,13.50
2019-04-10T15:23:47.197Z,13.40
2019-04-10T15:26:21.796Z,13.40
2019-04-10T15:28:54.293Z,13.30
2019-04-10T15:31:27.866Z,13.30
2019-04-10T15:34:01.392Z,13.20
2019-04-10T15:36:34.077Z,13.10
2019-04-10T15:39:09.030Z,13.00
2019-04-10T15:41:42.025Z,12.90
2019-04-10T15:44:15.376Z,12.90
2019-04-10T15:46:48.982Z,12.90
2019-04-10T15:49:22.823Z,12.80
2019-04-10T15:51:57.205Z,12.80
2019-04-10T15:54:30.024Z,12.80
2019-04-10T15:57:04.687Z,12.70
2019-04-10T15:59:37.179Z,12.60
2019-04-10T16:02:11.141Z,12.60
2019-04-10T16:04:44.425Z,12.60
2019-04-10T16:07:18.077Z,12.60
2019-04-10T16:09:54.769Z,12.60
2019-04-10T16:12:26.966Z,12.50
2019-04-10T16:15:00.551Z,12.50
2019-04-10T16:17:42.386Z,12.50
2019-04-10T16:20:33.745Z,12.50
2019-04-10T16:23:29.011Z,12.50
2019-04-10T16:26:01.439Z,12.40
2019-04-10T16:28:35.477Z,12.40
2019-04-10T16:31:08.516Z,12.40
2019-04-10T16:33:41.349Z,12.30
2019-04-10T16:36:13.815Z,12.30
2019-04-10T16:38:46.961Z,12.30
2019-04-10T16:41:19.437Z,12.30
2019-04-10T16:43:52.882Z,12.20
2019-04-10T16:46:24.976Z,12.20
2019-04-10T16:48:58.269Z,12.20
2019-04-10T16:51:30.824Z,12.10
2019-04-10T16:54:04.768Z,12.10
2019-04-10T16:56:38.048Z,12.10
2019-04-10T16:59:10.801Z,12.00
2019-04-10T17:01:44.833Z,11.90
2019-04-10T17:04:18.802Z,11.90
2019-04-10T17:06:52.573Z,11.90
2019-04-10T17:09:26.945Z,11.80
2019-04-10T17:11:59.773Z,11.80
2019-04-10T17:14:32.325Z,11.80
2019-04-10T17:17:10.387Z,11.70
2019-04-10T17:19:49.391Z,11.70
2019-04-10T17:22:29.177Z,11.60
2019-04-10T17:24:51.498Z,11.60
2019-04-10T17:27:23.987Z,11.50
2019-04-10T17:29:56.935Z,11.40
2019-04-10T17:32:31.280Z,11.30
2019-04-10T17:35:05.330Z,11.20
2019-04-10T17:37:40.234Z,11.10
2019-04-10T17:40:28.521Z,11.00
2019-04-10T17:42:49.906Z,10.90
2019-04-10T17:45:23.120Z,10.80
2019-04-10T17:47:56.502Z,10.70
2019-04-10T17:50:30.092Z,10.60
2019-04-10T17:53:05.119Z,10.50
2019-04-10T17:55:37.638Z,10.40
2019-04-10T17:58:11.495Z,10.30
2019-04-10T18:00:47.272Z,10.30
2019-04-10T18:03:19.763Z,10.20
2019-04-10T18:05:52.991Z,10.20
2019-04-10T18:08:27.130Z,10.10
2019-04-10T18:11:00.271Z,10.00
2019-04-10T18:13:34.161Z,10.00
2019-04-10T18:16:06.315Z,9.90
2019-04-10T18:18:39.950Z,9.80
2019-04-10T18:21:12.683Z,9.70
2019-04-10T18:23:44.751Z,9.60
2019-04-10T18:26:19.527Z,9.60
2019-04-10T18:28:50.603Z,9.60
2019-04-10T18:31:25.165Z,9.50
2019-04-10T18:33:57.195Z,9.50
2019-04-10T18:36:29.883Z,9.40
2019-04-10T18:39:02.180Z,9.30
2019-04-10T18:41:34.731Z,9.30
2019-04-10T18:44:07.150Z,9.20
2019-04-10T18:46:40.132Z,9.10
2019-04-10T18:49:13.543Z,9.10
2019-04-10T18:51:45.974Z,9.10
2019-04-10T18:54:19.243Z,9.00
2019-04-10T18:56:51.694Z,9.00
2019-04-10T18:59:42.864Z,8.90
2019-04-10T19:02:41.278Z,8.80
2019-04-10T19:05:27.941Z,8.80
2019-04-10T19:08:01.144Z,8.70
2019-04-10T19:10:34.653Z,8.70
2019-04-10T19:13:07.501Z,8.60
2019-04-10T19:15:40.483Z,8.60
2019-04-10T19:18:15.236Z,8.50
2019-04-10T19:20:49.177Z,8.40
2019-04-10T19:23:23.931Z,8.40
2019-04-10T19:25:56.783Z,8.40
2019-04-10T19:28:35.043Z,8.30
2019-04-10T19:31:18.894Z,8.30
2019-04-10T19:33:45.254Z,8.20
2019-04-10T19:36:17.487Z,8.10
2019-04-10T19:38:51.752Z,8.10
2019-04-10T19:41:31.157Z,8.10
2019-04-10T19:43:58.929Z,8.10
2019-04-10T19:46:31.601Z,8.10
2019-04-10T19:49:04.207Z,8.00
2019-04-10T19:51:38.434Z,8.00
2019-04-10T19:54:11.813Z,8.00
2019-04-10T19:56:44.587Z,7.90
2019-04-10T19:59:25.008Z,7.90
2019-04-10T20:02:00.283Z,7.90
2019-04-10T20:04:33.057Z,7.90
2019-04-10T20:07:05.403Z,7.80
2019-04-10T20:09:38.855Z,7.80
2019-04-10T20:12:11.260Z,7.80
2019-04-10T20:14:44.344Z,7.80
2019-04-10T20:17:17.029Z,7.70
2019-04-10T20:19:49.146Z,7.60
2019-04-10T20:22:21.557Z,7.50
2019-04-10T20:24:53.938Z,7.50
2019-04-10T20:27:26.286Z,7.50
2019-04-10T20:29:59.401Z,7.50
2019-04-10T20:32:32.350Z,7.50
2019-04-10T20:35:04.642Z,7.50
2019-04-10T20:37:36.666Z,7.40
2019-04-10T20:40:09.714Z,7.20
2019-04-10T20:42:42.626Z,7.20
2019-04-10T20:45:15.905Z,7.10
2019-04-10T20:47:49.716Z,7.10
2019-04-10T20:50:21.789Z,7.00
2019-04-10T20:52:53.773Z,6.90
2019-04-10T20:55:26.307Z,6.90
2019-04-10T20:57:58.219Z,6.90
2019-04-10T21:00:43.109Z,6.80
2019-04-10T21:03:15.835Z,6.80
2019-04-10T21:05:49.069Z,6.70
2019-04-10T21:08:22.057Z,6.70
2019-04-10T21:10:54.798Z,6.70
2019-04-10T21:13:26.765Z,6.70
2019-04-10T21:16:00.727Z,6.80
2019-04-10T21:18:33.548Z,6.80
2019-04-10T21:21:05.986Z,6.70
2019-04-10T21:23:38.212Z,6.70
2019-04-10T21:26:10.322Z,6.60
2019-04-10T21:28:43.690Z,6.60
2019-04-10T21:31:34.274Z,6.60
2019-04-10T21:34:21.731Z,6.60
2019-04-10T21:36:54.484Z,6.60
2019-04-10T21:39:27.619Z,6.50
2019-04-10T21:42:12.080Z,6.60
2019-04-10T21:44:33.704Z,6.60
2019-04-10T21:47:06.306Z,6.60
2019-04-10T21:49:40.016Z,6.50
2019-04-10T21:52:12.135Z,6.50
2019-04-10T21:54:51.093Z,6.50
2019-04-10T21:57:18.246Z,6.50
2019-04-10T21:59:51.610Z,6.50
2019-04-10T22:02:24.155Z,6.50
2019-04-10T22:04:57.421Z,6.50
2019-04-10T22:07:54.965Z,6.50
2019-04-10T22:10:32.309Z,6.50
2019-04-10T22:13:06.321Z,6.30
2019-04-10T22:15:41.454Z,6.20
2019-04-10T22:18:14.778Z,6.10
2019-04-10T22:20:47.974Z,6.10
2019-04-10T22:23:20.451Z,6.10
2019-04-10T22:25:52.565Z,6.10
2019-04-10T22:28:25.365Z,6.10
2019-04-10T22:30:58.101Z,6.20
2019-04-10T22:33:30.078Z,6.10
2019-04-10T22:36:02.375Z,6.00
2019-04-10T22:38:34.314Z,6.00
2019-04-10T22:41:18.692Z,5.90
2019-04-10T22:43:40.767Z,5.90
2019-04-10T22:46:13.129Z,5.90
2019-04-10T22:48:45.751Z,6.00
2019-04-10T22:51:19.225Z,6.00
2019-04-10T22:53:51.591Z,5.90
2019-04-10T22:56:25.087Z,5.90
2019-04-10T22:58:58.096Z,5.90
2019-04-10T23:01:31.303Z,5.80
2019-04-10T23:04:04.196Z,5.70
2019-04-10T23:06:37.531Z,5.70
2019-04-10T23:09:13.847Z,5.70
2019-04-10T23:11:46.931Z,5.60
2019-04-10T23:14:18.968Z,5.60
2019-04-10T23:16:52.492Z,5.50
2019-04-10T23:19:24.490Z,5.50
2019-04-10T23:21:56.886Z,5.40
2019-04-10T23:24:29.780Z,5.40
2019-04-10T23:27:02.011Z,5.40
2019-04-10T23:29:36.003Z,5.40
2019-04-10T23:32:08.414Z,5.30
2019-04-10T23:34:41.004Z,5.30
2019-04-10T23:37:12.975Z,5.20
2019-04-10T23:39:46.162Z,5.20
2019-04-10T23:42:19.138Z,5.10
2019-04-10T23:44:51.851Z,5.10
2019-04-10T23:47:24.287Z,5.10
2019-04-10T23:49:56.230Z,5.00
2019-04-10T23:52:28.143Z,5.00
2019-04-10T23:55:00.153Z,5.00
2019-04-10T23:57:33.506Z,5.00
